Time;durP1;ratioP1;P1;durP2;ratioP2;P2;SDS_P1;SDS_P2;PMS_P1;PMS_P2;Temp;Humidity;BMP_temperature;BMP_pressure;BME280_temperature;BME280_humidity;BME280_pressure;Samples;Min_cycle;Max_cycle;Signal;HPM_P1;HPM_P2
2022/12/29 00:01:39;;;;;;;;;1.00;1.00;;;;;12.49;72.24;100211.00;5059351;28;45154;-57
2022/12/29 00:04:05;;;;;;;;;1.50;0.75;;;;;12.44;71.77;100177.75;5059546;28;45199;-57
2022/12/29 00:06:31;;;;;;;;;2.75;2.25;;;;;12.47;72.15;100196.13;5059773;28;45279;-57
2022/12/29 00:08:56;;;;;;;;;4.25;2.00;;;;;12.55;72.00;100202.00;5059466;28;46117;-58
2022/12/29 00:11:25;;;;;;;;;2.25;2.00;;;;;12.59;71.61;100186.97;5059213;28;46245;-57
2022/12/29 00:16:37;;;;;;;;;1.50;1.50;;;;;12.59;72.32;100182.59;5059219;28;45397;-58
2022/12/29 00:19:04;;;;;;;;;1.25;1.25;;;;;12.59;72.04;100216.84;5059437;28;45630;-57
2022/12/29 00:35:26;;;;;;;;;2.75;2.50;;;;;12.68;71.62;100169.09;5061451;28;45374;-57
2022/12/29 00:46:04;;;;;;;;;5.50;3.00;;;;;12.60;71.78;100130.72;5062266;28;45263;-57
2022/12/29 00:51:14;;;;;;;;;3.00;3.00;;;;;12.63;71.81;100128.84;5062502;28;45224;-58
2022/12/29 00:53:39;;;;;;;;;0.00;0.00;;;;;12.61;71.92;100135.94;5062049;28;46327;-57
2022/12/29 00:56:04;;;;;;;;;3.00;2.00;;;;;12.59;72.08;100123.72;5062434;28;45333;-58
2022/12/29 00:58:30;;;;;;;;;1.00;1.00;;;;;12.60;71.51;100131.59;5062399;28;45253;-57
2022/12/29 01:01:07;;;;;;;;;1.50;1.50;;;;;12.51;72.21;100111.66;5062261;28;45236;-58
2022/12/29 01:03:34;;;;;;;;;2.25;2.25;;;;;12.57;71.87;100101.84;5062058;28;46080;-57
2022/12/29 01:06:05;;;;;;;;;1.50;1.50;;;;;12.62;71.88;100087.59;5062195;28;45359;-58
2022/12/29 01:08:30;;;;;;;;;1.00;1.00;;;;;12.67;72.00;100116.44;5062000;28;45266;-58
2022/12/29 01:11:07;;;;;;;;;2.50;2.50;;;;;12.68;71.76;100144.53;5062126;28;45303;-58
2022/12/29 01:13:33;;;;;;;;;3.75;2.00;;;;;12.74;71.67;100125.88;5062139;28;46285;-58
2022/12/29 01:15:59;;;;;;;;;2.25;2.00;;;;;12.75;72.19;100132.00;5061555;28;45429;-58
2022/12/29 01:18:25;;;;;;;;;1.50;1.00;;;;;12.76;71.96;100125.81;5062221;28;46580;-58
2022/12/29 01:20:51;;;;;;;;;2.50;1.75;;;;;12.77;72.03;100135.47;5061869;28;45504;-58
2022/12/29 01:23:17;;;;;;;;;0.50;0.50;;;;;12.81;72.24;100144.97;5061831;28;46355;-58
2022/12/29 01:25:42;;;;;;;;;1.00;1.00;;;;;12.85;72.56;100133.41;5061731;28;45395;-58
2022/12/29 01:28:08;;;;;;;;;3.00;2.50;;;;;12.83;72.39;100136.09;5061817;28;45487;-58
2022/12/29 01:30:34;;;;;;;;;1.75;1.75;;;;;12.81;72.64;100131.78;5061573;28;45577;-58
2022/12/29 01:33:00;;;;;;;;;5.00;1.00;;;;;12.89;72.35;100142.09;5061874;28;45227;-58
2022/12/29 01:35:25;;;;;;;;;4.00;2.75;;;;;12.90;72.64;100146.44;5061573;28;45252;-58
2022/12/29 01:37:51;;;;;;;;;2.00;2.00;;;;;12.82;72.37;100152.84;5077517;28;45433;-58
2022/12/29 01:40:16;;;;;;;;;1.75;1.00;;;;;12.81;72.66;100151.09;5061740;28;45326;-56
2022/12/29 01:42:41;;;;;;;;;2.50;1.50;;;;;12.76;72.41;100150.38;5061307;27;45224;-57
2022/12/29 01:45:11;;;;;;;;;3.50;2.75;;;;;12.75;72.59;100158.34;5061518;28;45212;-56
2022/12/29 01:47:49;;;;;;;;;1.50;1.00;;;;;12.74;73.17;100167.16;5076351;28;45684;-56
2022/12/29 01:50:26;;;;;;;;;0.00;0.00;;;;;12.61;73.22;100149.09;5061498;28;45382;-56
2022/12/29 01:52:59;;;;;;;;;2.75;0.00;;;;;12.60;73.49;100155.31;5076794;28;46983;-56
2022/12/29 01:55:29;;;;;;;;;3.00;2.00;;;;;12.56;73.63;100152.81;5061261;28;45248;-56
2022/12/29 01:57:59;;;;;;;;;1.25;1.00;;;;;12.54;73.55;100167.81;5061312;28;45364;-56
2022/12/29 02:00:24;;;;;;;;;0.25;0.00;;;;;12.45;73.62;100158.41;5061255;28;45186;-56
2022/12/29 02:02:52;;;;;;;;;1.00;1.00;;;;;12.46;73.74;100168.91;5060968;28;46311;-55
2022/12/29 02:05:42;;;;;;;;;1.50;0.50;;;;;12.44;73.76;100165.47;5061329;28;45247;-55
2022/12/29 02:08:09;;;;;;;;;2.75;2.00;;;;;12.41;73.94;100167.34;5061125;28;45315;-56
2022/12/29 02:10:36;;;;;;;;;2.00;2.00;;;;;12.38;73.76;100164.78;5061271;28;45291;-55
2022/12/29 02:13:01;;;;;;;;;3.75;2.00;;;;;12.35;74.09;100171.88;5060670;28;46408;-56
2022/12/29 02:15:48;;;;;;;;;2.00;2.00;;;;;12.37;74.36;100170.97;5061220;28;45228;-55
2022/12/29 02:18:28;;;;;;;;;3.50;3.00;;;;;12.34;74.47;100170.16;5061091;28;45322;-56
2022/12/29 02:21:31;;;;;;;;;2.25;1.00;;;;;12.34;74.81;100154.34;5060893;28;45258;-56
2022/12/29 02:24:21;;;;;;;;;2.25;2.25;;;;;12.30;74.57;100186.97;5060738;28;45399;-55
2022/12/29 02:27:28;;;;;;;;;0.75;0.75;;;;;12.27;74.66;100144.91;5060676;28;45243;-56
2022/12/29 02:30:08;;;;;;;;;0.25;0.25;;;;;12.29;74.84;100144.84;5050164;28;45475;-56
2022/12/29 02:33:08;;;;;;;;;2.75;1.00;;;;;12.24;74.63;100137.09;5060434;28;45335;-56
2022/12/29 02:35:48;;;;;;;;;1.25;1.25;;;;;12.25;74.93;100137.97;5038407;28;45309;-56
2022/12/29 02:38:35;;;;;;;;;4.00;2.50;;;;;12.25;74.70;100144.09;5060729;28;45462;-56
2022/12/29 02:41:18;;;;;;;;;2.50;1.75;;;;;12.24;75.03;100149.41;5060723;28;45311;-56
2022/12/29 02:43:52;;;;;;;;;1.00;1.00;;;;;12.23;74.90;100147.69;5060574;28;45419;-56
2022/12/29 02:46:39;;;;;;;;;2.25;0.50;;;;;12.23;75.33;100164.34;5058964;28;46144;-56
2022/12/29 02:49:19;;;;;;;;;0.00;0.00;;;;;12.21;75.10;100145.09;5060594;28;45476;-54
2022/12/29 02:51:51;;;;;;;;;0.00;0.00;;;;;12.16;75.23;100191.78;5060295;28;45439;-54
2022/12/29 02:57:02;;;;;;;;;0.00;0.00;;;;;12.00;75.25;100171.16;5060086;28;45291;-54
2022/12/29 02:59:28;;;;;;;;;0.00;0.00;;;;;11.93;75.34;100174.00;5060536;28;45220;-55
2022/12/29 03:02:28;;;;;;;;;0.00;0.00;;;;;11.91;74.91;100162.63;5075825;28;45367;-55
2022/12/29 03:05:27;;;;;;;;;0.00;0.00;;;;;11.82;74.76;100156.75;5060282;28;45524;-56
2022/12/29 03:07:52;;;;;;;;;1.75;0.00;;;;;11.79;74.77;100148.06;5036970;28;45486;-56
2022/12/29 03:10:38;;;;;;;;;0.00;0.00;;;;;11.68;75.15;100175.56;5060292;28;45276;-56
2022/12/29 03:16:14;;;;;;;;;0.25;0.00;;;;;11.58;75.10;100153.00;5059992;28;45306;-56
2022/12/29 03:18:39;;;;;;;;;1.50;1.00;;;;;11.56;74.56;100154.84;5060175;28;46130;-56
2022/12/29 03:22:26;;;;;;;;;0.75;0.50;;;;;11.54;74.78;100159.28;5059987;28;45213;-56
2022/12/29 03:24:18;;;;;;;;;0.00;0.00;;;;;11.42;74.57;100146.44;5057594;28;45388;-56
2022/12/29 03:26:47;;;;;;;;;0.00;0.00;;;;;11.40;74.11;100159.66;5049677;28;45465;-56
2022/12/29 03:29:15;;;;;;;;;0.00;0.00;;;;;11.36;74.12;100140.44;5059779;28;45288;-56
2022/12/29 03:31:42;;;;;;;;;0.00;0.00;;;;;11.31;74.73;100155.50;5059625;28;45381;-56
2022/12/29 03:34:09;;;;;;;;;1.00;0.00;;;;;11.36;74.37;100152.75;5059917;28;45415;-56
2022/12/29 03:36:52;;;;;;;;;2.25;0.00;;;;;11.33;74.83;100151.06;5060138;28;45236;-56
2022/12/29 03:39:21;;;;;;;;;0.00;0.00;;;;;11.29;73.99;100162.56;5059876;28;45458;-56
2022/12/29 03:41:50;;;;;;;;;1.00;0.00;;;;;11.23;74.47;100167.97;5059606;28;45256;-56
2022/12/29 03:44:16;;;;;;;;;0.50;0.50;;;;;11.27;74.22;100174.91;5075795;28;45323;-56
2022/12/29 03:46:41;;;;;;;;;3.00;0.00;;;;;11.26;74.28;100182.81;5059549;28;45336;-56
2022/12/29 03:49:06;;;;;;;;;0.00;0.00;;;;;11.20;74.39;100176.81;5059735;28;46311;-56
2022/12/29 03:51:32;;;;;;;;;0.25;0.00;;;;;11.22;74.13;100187.31;5059597;28;45472;-56
2022/12/29 03:53:57;;;;;;;;;1.50;0.00;;;;;11.20;74.31;100194.38;5060036;28;45354;-56
2022/12/29 03:56:22;;;;;;;;;1.00;0.00;;;;;11.20;74.47;100189.09;5075219;28;45414;-56
2022/12/29 03:58:48;;;;;;;;;0.50;0.00;;;;;11.17;74.29;100190.03;5059712;28;45333;-56
2022/12/29 04:01:13;;;;;;;;;1.25;0.00;;;;;11.16;74.66;100192.72;5059386;28;45406;-56
2022/12/29 04:03:38;;;;;;;;;0.00;0.00;;;;;11.18;74.22;100188.28;5059939;28;45358;-56
2022/12/29 04:06:04;;;;;;;;;0.00;0.00;;;;;11.17;74.64;100183.91;5059582;28;45323;-56
2022/12/29 04:08:29;;;;;;;;;0.00;0.00;;;;;11.21;74.35;100185.56;5059563;28;46400;-56
2022/12/29 04:10:55;;;;;;;;;1.00;0.00;;;;;11.16;73.87;100187.47;5062683;28;45227;-56
2022/12/29 04:13:20;;;;;;;;;0.25;0.00;;;;;11.13;74.00;100184.91;5078850;28;45253;-56
2022/12/29 04:15:46;;;;;;;;;0.00;0.00;;;;;11.11;74.52;100178.84;5062863;28;45165;-56
2022/12/29 04:18:12;;;;;;;;;0.00;0.00;;;;;11.23;74.09;100167.97;5062960;28;46557;-56
2022/12/29 04:23:22;;;;;;;;;0.00;0.00;;;;;11.20;74.29;100191.72;5063085;28;45244;-56
2022/12/29 04:25:47;;;;;;;;;0.00;0.00;;;;;11.27;74.16;100182.78;5062613;28;45227;-56
2022/12/29 04:28:13;;;;;;;;;4.00;0.00;;;;;11.31;74.55;100192.31;5062672;28;46866;-56
2022/12/29 04:30:39;;;;;;;;;0.00;0.00;;;;;11.35;74.43;100195.75;5078133;28;45205;-56
2022/12/29 04:33:04;;;;;;;;;1.00;1.00;;;;;11.33;74.79;100187.91;5062967;28;45508;-56
2022/12/29 04:35:29;;;;;;;;;1.75;0.00;;;;;11.42;74.57;100209.59;5062713;28;45543;-56
2022/12/29 04:37:55;;;;;;;;;1.00;1.00;;;;;11.41;74.61;100228.91;5062737;28;46256;-56
2022/12/29 04:40:20;;;;;;;;;0.00;0.00;;;;;11.42;73.86;100212.22;5062674;28;45299;-56
2022/12/29 04:42:45;;;;;;;;;0.00;0.00;;;;;11.41;74.01;100223.63;5062673;28;45453;-56
2022/12/29 04:45:11;;;;;;;;;1.00;0.00;;;;;11.45;74.17;100215.63;5062698;28;45303;-56
2022/12/29 04:47:36;;;;;;;;;0.25;0.25;;;;;11.42;74.18;100222.75;5062234;28;45295;-56
2022/12/29 04:50:02;;;;;;;;;0.00;0.00;;;;;11.44;74.38;100219.16;5062546;28;45314;-55
2022/12/29 04:52:27;;;;;;;;;1.00;0.00;;;;;11.47;74.02;100226.13;5062479;28;45414;-56
2022/12/29 04:54:52;;;;;;;;;0.00;0.00;;;;;11.49;74.24;100227.78;5062472;28;45512;-56
2022/12/29 04:57:18;;;;;;;;;1.00;0.00;;;;;11.51;74.80;100231.25;5062440;28;46396;-56
2022/12/29 04:59:43;;;;;;;;;3.25;1.00;;;;;11.50;74.25;100208.47;5062271;28;45307;-56
2022/12/29 05:02:08;;;;;;;;;0.75;0.00;;;;;11.50;73.97;100211.13;5062203;28;45265;-56
2022/12/29 05:04:34;;;;;;;;;0.00;0.00;;;;;11.49;74.33;100212.00;5062244;28;45517;-56
2022/12/29 05:06:59;;;;;;;;;0.25;0.25;;;;;11.48;74.11;100218.19;5062355;28;46160;-56
2022/12/29 05:09:24;;;;;;;;;0.25;0.25;;;;;11.52;74.01;100232.13;5062213;28;45267;-56
2022/12/29 05:11:50;;;;;;;;;1.00;0.00;;;;;11.53;73.99;100241.75;5062304;28;45216;-56
2022/12/29 05:14:15;;;;;;;;;0.50;0.00;;;;;11.50;74.07;100240.06;5062231;28;45465;-56
2022/12/29 05:16:41;;;;;;;;;0.50;0.50;;;;;11.47;73.91;100242.78;5062025;28;46955;-56
2022/12/29 05:19:06;;;;;;;;;0.25;0.25;;;;;11.53;73.85;100239.09;5062027;28;45228;-56
2022/12/29 05:21:31;;;;;;;;;0.75;0.00;;;;;11.50;73.67;100245.31;5060915;28;45837;-56
2022/12/29 05:23:57;;;;;;;;;0.25;0.25;;;;;11.50;73.34;100257.63;5062044;28;45351;-56
2022/12/29 05:26:22;;;;;;;;;0.00;0.00;;;;;11.44;73.64;100282.31;5072284;28;48079;-55
2022/12/29 05:28:47;;;;;;;;;3.00;0.50;;;;;11.48;73.02;100257.66;5060554;28;45805;-56
2022/12/29 05:31:13;;;;;;;;;1.25;1.25;;;;;11.49;73.13;100253.25;5061773;28;45256;-56
2022/12/29 05:33:38;;;;;;;;;1.00;1.00;;;;;11.48;72.91;100259.41;5061961;28;45256;-56
2022/12/29 05:36:08;;;;;;;;;2.25;1.00;;;;;11.51;72.61;100264.63;5061811;28;45200;-56
2022/12/29 05:38:34;;;;;;;;;0.00;0.00;;;;;11.51;72.53;100259.34;5061736;28;45527;-56
2022/12/29 05:40:59;;;;;;;;;0.00;0.00;;;;;11.48;72.48;100259.41;5061886;28;45264;-56
2022/12/29 05:43:25;;;;;;;;;1.00;1.00;;;;;11.49;72.41;100262.00;5061641;28;45473;-56
2022/12/29 05:45:50;;;;;;;;;1.75;0.75;;;;;11.48;72.09;100259.41;5061614;28;45209;-56
2022/12/29 05:48:16;;;;;;;;;3.75;1.50;;;;;11.45;71.89;100268.25;5061599;28;45330;-56
2022/12/29 05:50:41;;;;;;;;;4.00;1.00;;;;;11.47;71.65;100277.00;5061787;28;45288;-56
2022/12/29 05:53:06;;;;;;;;;2.75;0.50;;;;;11.50;71.44;100271.63;5059976;28;45264;-56
2022/12/29 05:55:32;;;;;;;;;2.00;0.50;;;;;11.49;71.27;100269.91;5061524;28;46348;-56
2022/12/29 05:57:58;;;;;;;;;2.50;1.00;;;;;11.48;71.42;100269.94;5077085;28;45264;-56
2022/12/29 06:00:23;;;;;;;;;0.25;0.25;;;;;11.49;71.13;100285.69;5061211;28;45493;-56
2022/12/29 06:02:48;;;;;;;;;1.25;1.25;;;;;11.45;70.98;100291.94;5061364;28;45430;-56
2022/12/29 06:05:14;;;;;;;;;1.00;1.00;;;;;11.45;71.04;100291.94;5060052;28;48040;-56
2022/12/29 06:07:39;;;;;;;;;1.50;0.00;;;;;11.45;70.93;100302.47;5061189;27;45213;-56
2022/12/29 06:10:06;;;;;;;;;1.00;0.00;;;;;11.46;71.00;100298.94;5061386;28;45727;-56
2022/12/29 06:12:31;;;;;;;;;5.00;0.50;;;;;11.43;70.78;100300.78;5061032;28;45310;-56
2022/12/29 06:14:56;;;;;;;;;1.75;1.00;;;;;11.38;70.77;100301.75;5061036;28;45301;-56
2022/12/29 06:17:22;;;;;;;;;1.25;1.25;;;;;11.38;70.77;100309.66;5060961;28;45235;-56
2022/12/29 06:19:47;;;;;;;;;3.50;1.00;;;;;11.37;71.02;100304.41;5061243;28;45251;-57
2022/12/29 06:22:13;;;;;;;;;4.75;2.00;;;;;11.44;70.69;100305.13;5061159;28;45741;-57
2022/12/29 06:24:38;;;;;;;;;0.00;0.00;;;;;11.47;70.77;100326.09;5060110;28;45938;-56
2022/12/29 06:27:03;;;;;;;;;2.00;1.75;;;;;11.44;70.83;100328.81;5060888;28;45443;-57
2022/12/29 06:29:29;;;;;;;;;1.00;1.00;;;;;11.48;70.64;100343.63;5073107;28;45797;-56
2022/12/29 06:31:57;;;;;;;;;2.00;1.00;;;;;11.48;70.41;100325.19;5052615;28;45248;-57
2022/12/29 06:34:23;;;;;;;;;2.25;0.50;;;;;11.42;70.69;100325.34;5060975;28;45220;-57
2022/12/29 06:36:48;;;;;;;;;1.00;1.00;;;;;11.41;70.63;100320.97;5060892;28;45226;-56
2022/12/29 06:39:14;;;;;;;;;0.25;0.00;;;;;11.43;70.51;100345.50;5060736;28;45951;-56
2022/12/29 06:41:39;;;;;;;;;0.50;0.50;;;;;11.40;70.40;100335.06;5059380;28;45265;-56
2022/12/29 06:44:05;;;;;;;;;3.00;2.00;;;;;11.40;70.65;100351.69;5060595;28;46133;-56
2022/12/29 06:46:30;;;;;;;;;3.25;1.50;;;;;11.43;70.48;100348.13;5060568;28;45370;-56
2022/12/29 06:48:55;;;;;;;;;2.00;1.00;;;;;11.44;70.65;100365.66;5060633;28;45426;-56
2022/12/29 06:51:20;;;;;;;;;2.25;1.25;;;;;11.43;70.52;100353.41;5060493;28;45314;-57
2022/12/29 06:53:46;;;;;;;;;2.50;2.50;;;;;11.43;70.53;100359.50;5060408;28;46296;-56
2022/12/29 06:56:11;;;;;;;;;3.00;1.00;;;;;11.43;70.55;100366.53;5060590;28;45302;-55
2022/12/29 06:58:37;;;;;;;;;3.25;1.00;;;;;11.45;70.44;100383.19;5060561;28;45407;-56
2022/12/29 07:01:02;;;;;;;;;3.50;1.00;;;;;11.38;70.59;100370.16;5060193;28;45331;-55
2022/12/29 07:03:28;;;;;;;;;0.00;0.00;;;;;11.37;70.50;100376.31;5060290;28;45303;-56
2022/12/29 07:05:54;;;;;;;;;1.25;1.25;;;;;11.35;70.40;100390.41;5060539;28;45385;-56
2022/12/29 07:08:19;;;;;;;;;2.00;0.75;;;;;11.31;70.56;100396.66;5060492;28;45418;-56
2022/12/29 07:10:45;;;;;;;;;1.00;1.00;;;;;11.30;70.63;100395.75;5060456;28;45247;-56
2022/12/29 07:13:10;;;;;;;;;2.25;0.50;;;;;11.35;70.57;100398.31;5058781;28;46350;-57
2022/12/29 07:15:37;;;;;;;;;5.50;1.00;;;;;11.34;70.52;100396.56;5060171;28;45382;-57
2022/12/29 07:18:03;;;;;;;;;4.25;3.25;;;;;11.34;70.58;100399.19;5060296;28;45399;-56
2022/12/29 07:20:29;;;;;;;;;0.00;0.00;;;;;11.32;70.60;100379.94;5060348;28;45199;-57
2022/12/29 07:22:55;;;;;;;;;3.25;1.75;;;;;11.32;70.57;100396.59;5059895;28;45341;-56
2022/12/29 07:25:20;;;;;;;;;3.00;1.00;;;;;11.33;70.76;100386.94;5048367;28;45340;-56
2022/12/29 07:27:46;;;;;;;;;4.00;2.00;;;;;11.33;70.54;100389.56;5058361;28;45284;-56
2022/12/29 07:30:11;;;;;;;;;0.75;0.75;;;;;11.30;70.50;100387.88;5060230;28;45410;-57
2022/12/29 07:32:37;;;;;;;;;5.75;2.00;;;;;11.28;70.85;100401.97;5059656;28;45418;-56
2022/12/29 07:35:02;;;;;;;;;1.75;0.50;;;;;11.29;70.56;100394.03;5060155;28;45340;-56
2022/12/29 07:37:28;;;;;;;;;3.25;2.50;;;;;11.30;70.55;100397.53;5060032;27;45329;-56
2022/12/29 07:39:53;;;;;;;;;2.00;0.00;;;;;11.31;70.64;100402.75;5060064;28;45302;-55
2022/12/29 07:42:18;;;;;;;;;3.00;0.75;;;;;11.29;70.58;100395.81;5059672;28;45311;-56
2022/12/29 07:44:44;;;;;;;;;4.50;2.00;;;;;11.24;70.93;100395.91;5061226;28;45349;-56
2022/12/29 07:47:09;;;;;;;;;2.00;1.00;;;;;11.23;70.89;100404.69;5063308;28;45310;-56
2022/12/29 07:49:34;;;;;;;;;3.50;3.00;;;;;11.25;70.70;100429.19;5063379;28;45541;-56
2022/12/29 07:52:00;;;;;;;;;1.75;0.25;;;;;11.28;70.73;100417.75;5063151;28;46119;-56
2022/12/29 07:54:25;;;;;;;;;1.75;1.75;;;;;11.29;70.75;100424.75;5063405;28;45193;-57
2022/12/29 07:56:51;;;;;;;;;0.75;0.75;;;;;11.29;70.53;100422.97;5063343;28;45229;-56
2022/12/29 07:59:16;;;;;;;;;1.50;1.00;;;;;11.31;70.51;100422.97;5063323;28;45477;-57
2022/12/29 08:01:42;;;;;;;;;4.75;1.50;;;;;11.31;70.48;100422.97;5062884;28;45327;-56
2022/12/29 08:04:07;;;;;;;;;3.50;1.50;;;;;11.25;70.48;100428.34;5063205;28;45278;-56
2022/12/29 08:06:33;;;;;;;;;3.50;2.00;;;;;11.29;70.39;100440.53;5063270;28;45217;-56
2022/12/29 08:09:00;;;;;;;;;2.00;0.50;;;;;11.28;70.39;100442.31;5078908;28;45569;-56
2022/12/29 08:11:25;;;;;;;;;2.75;2.00;;;;;11.31;70.15;100458.00;5062871;28;46168;-57
2022/12/29 08:13:51;;;;;;;;;4.00;1.00;;;;;11.33;70.17;100447.44;5062930;28;45402;-56
2022/12/29 08:16:17;;;;;;;;;3.75;1.00;;;;;11.31;70.17;100451.91;5063106;28;45349;-56
2022/12/29 08:18:42;;;;;;;;;4.00;1.75;;;;;11.31;70.08;100444.84;5063024;28;45446;-56
2022/12/29 08:21:07;;;;;;;;;3.50;2.25;;;;;11.27;69.90;100447.56;5062682;28;45975;-56
2022/12/29 08:23:33;;;;;;;;;5.00;1.50;;;;;11.27;70.10;100458.09;5063111;28;45349;-56
2022/12/29 08:26:03;;;;;;;;;1.75;1.00;;;;;11.26;70.07;100454.63;5062696;28;45280;-56
2022/12/29 08:28:29;;;;;;;;;3.25;1.25;;;;;11.30;69.95;100469.44;5062061;28;46656;-56
2022/12/29 08:30:59;;;;;;;;;1.50;1.50;;;;;11.32;69.82;100467.63;5062402;28;46357;-56
2022/12/29 08:33:25;;;;;;;;;4.75;1.25;;;;;11.30;69.91;100469.44;5062721;28;45263;-56
2022/12/29 08:35:50;;;;;;;;;2.50;0.00;;;;;11.31;69.68;100459.78;5062728;28;45284;-56
2022/12/29 08:38:16;;;;;;;;;2.00;2.00;;;;;11.31;69.75;100480.81;5062821;28;45500;-56
2022/12/29 08:40:41;;;;;;;;;2.25;1.50;;;;;11.31;69.65;100473.78;5062986;27;45317;-56
2022/12/29 08:43:07;;;;;;;;;3.00;2.00;;;;;11.31;69.61;100486.09;5062539;28;45236;-56
2022/12/29 08:45:32;;;;;;;;;2.00;2.00;;;;;11.27;69.72;100472.13;5062588;28;45208;-56
2022/12/29 08:47:57;;;;;;;;;3.00;2.00;;;;;11.27;69.51;100480.03;5078241;28;45566;-56
2022/12/29 08:50:23;;;;;;;;;2.25;1.00;;;;;11.31;69.49;100488.72;5062906;27;45285;-56
2022/12/29 08:52:48;;;;;;;;;3.00;2.00;;;;;11.29;69.38;100482.63;5062217;28;45225;-55
2022/12/29 08:55:13;;;;;;;;;5.00;2.50;;;;;11.33;69.44;100490.41;5062121;28;45509;-56
2022/12/29 08:57:39;;;;;;;;;2.00;1.75;;;;;11.32;69.15;100490.44;5062469;28;45232;-56
2022/12/29 09:00:05;;;;;;;;;2.00;2.00;;;;;11.34;69.09;100494.75;5062208;28;46200;-56
2022/12/29 09:02:30;;;;;;;;;3.00;1.00;;;;;11.35;69.18;100499.13;5062111;28;45413;-56
2022/12/29 09:04:57;;;;;;;;;2.25;2.25;;;;;11.36;69.17;100508.75;5062140;28;45364;-56
2022/12/29 09:07:23;;;;;;;;;7.75;3.75;;;;;11.36;69.10;100500.00;5062144;28;45436;-57
2022/12/29 09:09:48;;;;;;;;;1.25;1.00;;;;;11.40;68.96;100508.72;5061869;28;45384;-56
2022/12/29 09:12:13;;;;;;;;;4.50;2.00;;;;;11.41;68.87;100507.78;5061990;28;46683;-56
2022/12/29 09:14:39;;;;;;;;;3.00;2.00;;;;;11.42;68.72;100509.53;5062256;28;45304;-56
2022/12/29 09:19:48;;;;;;;;;4.25;1.75;;;;;11.42;68.75;100517.41;5061975;28;45453;-57
2022/12/29 09:22:13;;;;;;;;;1.75;1.00;;;;;11.43;69.00;100521.78;5061985;28;45307;-56
2022/12/29 09:24:39;;;;;;;;;3.75;1.25;;;;;11.44;68.92;100513.84;5062047;28;45288;-57
2022/12/29 09:27:04;;;;;;;;;3.00;1.00;;;;;11.44;68.91;100527.00;5077300;28;45350;-57
2022/12/29 09:29:29;;;;;;;;;1.25;1.00;;;;;11.47;68.82;100532.22;5061743;28;46103;-56
2022/12/29 09:31:55;;;;;;;;;1.75;1.00;;;;;11.49;68.66;100540.06;5077254;27;45225;-57
2022/12/29 09:34:20;;;;;;;;;5.50;1.25;;;;;11.47;68.88;100545.38;5061877;28;45484;-56
2022/12/29 09:36:45;;;;;;;;;5.25;2.00;;;;;11.53;68.82;100542.63;5077298;28;45471;-57
2022/12/29 09:39:12;;;;;;;;;2.00;1.00;;;;;11.52;68.85;100554.03;5061568;28;45347;-57
2022/12/29 09:41:59;;;;;;;;;6.75;3.75;;;;;11.55;68.82;100553.97;5061607;28;45298;-56
2022/12/29 09:45:01;;;;;;;;;4.50;3.75;;;;;11.51;68.75;100541.78;5061687;28;45354;-56
2022/12/29 09:47:28;;;;;;;;;1.25;1.00;;;;;11.48;68.80;100552.38;5061200;28;45228;-56
2022/12/29 09:50:00;;;;;;;;;4.00;1.50;;;;;11.52;68.68;100550.53;5061195;28;47315;-56
2022/12/29 09:52:31;;;;;;;;;2.00;2.00;;;;;11.54;68.50;100551.38;5061336;27;45272;-60
2022/12/29 09:55:09;;;;;;;;;3.50;3.00;;;;;11.54;68.54;100554.84;5061455;28;45389;-56
2022/12/29 09:57:49;;;;;;;;;3.50;2.00;;;;;11.53;68.44;100553.16;5061166;28;45536;-57
2022/12/29 10:00:20;;;;;;;;;3.75;0.75;;;;;11.56;68.43;100557.47;5061491;27;45347;-56
2022/12/29 10:02:55;;;;;;;;;1.00;1.00;;;;;11.58;68.37;100567.97;5061272;28;45463;-56
2022/12/29 10:05:39;;;;;;;;;4.00;3.00;;;;;11.60;68.44;100582.81;5061424;28;45377;-57
2022/12/29 10:08:14;;;;;;;;;2.75;1.75;;;;;11.58;68.09;100595.13;5060212;28;45244;-56
2022/12/29 10:10:49;;;;;;;;;4.00;2.00;;;;;11.57;68.25;100603.94;5061160;28;46195;-57
2022/12/29 10:13:40;;;;;;;;;5.50;1.50;;;;;11.61;68.02;100583.69;5060954;28;45366;-57
2022/12/29 10:16:19;;;;;;;;;6.25;1.00;;;;;11.66;67.90;100580.06;5057752;28;45379;-56
2022/12/29 10:18:56;;;;;;;;;4.50;1.00;;;;;11.67;67.85;100584.44;5061080;28;45177;-57
2022/12/29 10:21:36;;;;;;;;;3.25;1.00;;;;;11.69;67.74;100574.72;5060786;28;45310;-57
2022/12/29 10:24:07;;;;;;;;;2.50;1.75;;;;;11.69;67.99;100590.50;5060944;28;45293;-56
2022/12/29 10:26:42;;;;;;;;;3.00;0.00;;;;;11.70;67.85;100589.63;5061180;28;45241;-57
2022/12/29 10:29:37;;;;;;;;;3.00;0.75;;;;;11.81;67.84;100580.63;5060817;28;45552;-57
2022/12/29 10:32:05;;;;;;;;;6.75;2.50;;;;;11.89;67.64;100572.56;5058805;28;46556;-57
2022/12/29 10:34:42;;;;;;;;;4.50;1.75;;;;;11.95;67.72;100568.03;5061010;28;45481;-56
2022/12/29 10:37:48;;;;;;;;;2.25;1.00;;;;;12.08;67.38;100552.84;5060939;28;45443;-57
2022/12/29 10:40:29;;;;;;;;;4.00;1.25;;;;;12.14;67.00;100546.56;5060708;28;45541;-57
2022/12/29 10:42:57;;;;;;;;;3.50;2.00;;;;;12.24;67.00;100565.63;5060605;28;46119;-57
2022/12/29 10:45:28;;;;;;;;;4.00;2.75;;;;;12.26;67.07;100563.84;5060322;28;45335;-57
2022/12/29 10:48:08;;;;;;;;;3.00;2.50;;;;;12.20;67.00;100556.97;5060782;28;45319;-57
2022/12/29 10:50:33;;;;;;;;;8.25;3.00;;;;;12.33;66.97;100576.81;5074777;27;45362;-56
2022/12/29 10:53:02;;;;;;;;;1.00;1.00;;;;;12.33;67.08;100561.00;5060201;28;47342;-57
2022/12/29 10:55:34;;;;;;;;;5.00;2.00;;;;;12.39;66.81;100570.56;5076094;28;46794;-57
2022/12/29 10:58:04;;;;;;;;;5.75;2.50;;;;;12.53;66.45;100557.03;5060595;28;45422;-57
2022/12/29 11:00:31;;;;;;;;;4.50;2.00;;;;;12.60;66.27;100574.44;5060172;28;45311;-57
2022/12/29 11:03:18;;;;;;;;;2.00;2.00;;;;;12.69;66.29;100568.03;5060189;28;45367;-57
2022/12/29 11:05:57;;;;;;;;;4.75;1.75;;;;;12.72;66.50;100575.03;5060277;28;45366;-57
2022/12/29 11:08:31;;;;;;;;;6.75;3.00;;;;;12.84;66.18;100572.94;5060328;28;45244;-57
2022/12/29 11:11:02;;;;;;;;;6.00;3.00;;;;;12.89;66.70;100577.22;5060380;28;45280;-57
2022/12/29 11:13:31;;;;;;;;;1.25;0.00;;;;;12.98;66.23;100579.59;5060108;28;45359;-57
2022/12/29 11:15:56;;;;;;;;;4.25;2.00;;;;;13.05;66.33;100575.88;5060024;28;45328;-57
2022/12/29 11:18:33;;;;;;;;;4.50;2.00;;;;;13.12;65.96;100584.53;5060367;28;45283;-57
2022/12/29 11:21:01;;;;;;;;;4.00;3.50;;;;;13.15;66.05;100576.50;5060152;28;45177;-56
2022/12/29 11:23:41;;;;;;;;;6.00;3.00;;;;;13.19;65.22;100585.22;5060170;28;46088;-57
2022/12/29 11:26:10;;;;;;;;;5.00;1.75;;;;;13.20;65.38;100571.13;5059791;28;45175;-58
2022/12/29 11:28:37;;;;;;;;;7.75;2.75;;;;;13.20;65.12;100571.97;5051976;28;45445;-56
2022/12/29 11:31:04;;;;;;;;;5.25;2.50;;;;;13.20;65.39;100586.94;5059571;28;45425;-57
2022/12/29 11:33:39;;;;;;;;;6.00;3.75;;;;;13.20;65.00;100582.53;5060536;27;45646;-58
2022/12/29 11:36:12;;;;;;;;;7.75;4.00;;;;;13.24;65.02;100584.16;5059836;28;45356;-58
2022/12/29 11:38:41;;;;;;;;;6.25;5.00;;;;;13.25;65.54;100571.84;5060040;28;45469;-58
2022/12/29 11:41:11;;;;;;;;;7.00;4.00;;;;;13.29;64.69;100568.22;5059843;28;45248;-58
2022/12/29 11:43:41;;;;;;;;;3.50;2.00;;;;;13.27;64.48;100578.81;5059781;28;45391;-58
2022/12/29 11:46:14;;;;;;;;;3.75;3.00;;;;;13.24;65.14;100570.13;5059650;28;45336;-58
2022/12/29 11:48:41;;;;;;;;;4.50;3.00;;;;;13.26;65.08;100563.88;5059760;28;45346;-58
2022/12/29 11:51:09;;;;;;;;;5.75;3.50;;;;;13.31;65.03;100564.63;5060050;28;45236;-58
2022/12/29 11:53:39;;;;;;;;;7.75;4.75;;;;;13.33;64.77;100552.25;5059341;28;46417;-56
2022/12/29 11:56:10;;;;;;;;;4.00;3.25;;;;;13.40;64.77;100560.03;5059533;28;45275;-56
2022/12/29 11:58:38;;;;;;;;;4.75;3.75;;;;;13.41;64.14;100557.34;5059766;28;45485;-56
2022/12/29 12:01:09;;;;;;;;;5.00;2.00;;;;;13.47;64.30;100543.97;5059304;28;45362;-56
2022/12/29 12:03:37;;;;;;;;;8.25;3.00;;;;;13.53;64.22;100548.19;5059426;28;45584;-56
2022/12/29 12:06:03;;;;;;;;;6.75;3.50;;;;;13.60;63.81;100539.19;5075093;28;45327;-56
2022/12/29 12:08:51;;;;;;;;;7.50;6.75;;;;;13.67;63.80;100545.13;5059647;28;45332;-56
2022/12/29 12:11:37;;;;;;;;;5.75;2.75;;;;;13.68;64.43;100546.84;5059447;28;45339;-56
2022/12/29 12:14:12;;;;;;;;;7.75;3.50;;;;;13.68;64.37;100546.00;5059368;28;46203;-56